createdAt,value
2018-02-14T00:00:57.859Z,15.10
2018-02-14T00:03:25.617Z,14.13
2018-02-14T00:05:53.212Z,15.77
2018-02-14T00:08:20.839Z,14.80
2018-02-14T00:10:49.354Z,14.90
2018-02-14T00:13:17.109Z,15.60
2018-02-14T00:15:49.617Z,14.97
2018-02-14T00:18:17.119Z,14.83
2018-02-14T00:20:44.635Z,15.77
2018-02-14T00:23:12.337Z,15.17
2018-02-14T00:25:39.930Z,15.07
2018-02-14T00:28:07.438Z,15.17
2018-02-14T00:30:35.005Z,14.43
2018-02-14T00:33:02.478Z,15.17
2018-02-14T00:35:29.961Z,14.80
2018-02-14T00:37:57.677Z,14.93
2018-02-14T00:40:25.309Z,15.33
2018-02-14T00:42:55.779Z,16.20
2018-02-14T00:45:23.345Z,15.90
2018-02-14T00:47:51.007Z,16.10
2018-02-14T00:50:18.710Z,15.10
2018-02-14T00:52:46.228Z,15.60
2018-02-14T00:55:13.767Z,15.47
2018-02-14T00:57:41.208Z,15.17
2018-02-14T01:00:09.023Z,15.90
2018-02-14T01:02:36.526Z,16.00
2018-02-14T01:05:04.007Z,15.47
2018-02-14T01:07:32.199Z,15.73
2018-02-14T01:09:59.696Z,15.00
2018-02-14T01:12:27.239Z,16.03
2018-02-14T01:14:54.706Z,16.33
2018-02-14T01:17:22.230Z,16.23
2018-02-14T01:19:55.413Z,16.73
2018-02-14T01:22:22.909Z,16.53
2018-02-14T01:24:50.397Z,16.07
2018-02-14T01:27:17.851Z,15.63
2018-02-14T01:29:45.311Z,16.13
2018-02-14T01:32:12.768Z,16.60
2018-02-14T01:34:40.347Z,16.07
2018-02-14T01:37:07.824Z,15.60
2018-02-14T01:39:35.362Z,17.13
2018-02-14T01:42:02.882Z,15.80
2018-02-14T01:44:30.361Z,14.87
2018-02-14T01:46:57.855Z,17.30
2018-02-14T01:49:25.364Z,16.57
2018-02-14T01:51:52.805Z,16.10
2018-02-14T01:54:20.299Z,17.03
2018-02-14T01:56:47.796Z,16.47
2018-02-14T01:59:15.234Z,17.30
2018-02-14T02:01:42.747Z,16.17
2018-02-14T02:04:10.295Z,15.80
2018-02-14T02:06:37.778Z,16.30
2018-02-14T02:09:05.270Z,16.43
2018-02-14T02:11:32.767Z,16.77
2018-02-14T02:14:00.291Z,17.60
2018-02-14T02:16:27.762Z,16.30
2018-02-14T02:18:55.251Z,15.80
2018-02-14T02:21:22.705Z,16.80
2018-02-14T02:23:50.163Z,17.00
2018-02-14T02:26:18.477Z,16.17
2018-02-14T02:28:46.047Z,16.37
2018-02-14T02:31:13.527Z,17.67
2018-02-14T02:33:41.873Z,17.07
2018-02-14T02:36:10.272Z,16.00
2018-02-14T02:38:37.736Z,16.20
2018-02-14T02:41:05.211Z,16.57
2018-02-14T02:43:32.684Z,16.80
2018-02-14T02:46:00.476Z,16.83
2018-02-14T02:48:27.933Z,16.23
2018-02-14T02:50:55.464Z,16.03
2018-02-14T02:53:23.032Z,16.67
2018-02-14T02:55:55.730Z,16.50
2018-02-14T02:58:23.166Z,16.40
2018-02-14T03:00:50.654Z,17.00
2018-02-14T03:03:18.122Z,16.63
2018-02-14T03:05:45.608Z,17.33
2018-02-14T03:08:13.063Z,17.97
2018-02-14T03:10:41.436Z,16.07
2018-02-14T03:13:08.887Z,16.03
2018-02-14T03:15:36.350Z,16.43
2018-02-14T03:18:03.910Z,16.00
2018-02-14T03:20:31.372Z,16.33
2018-02-14T03:22:58.856Z,15.70
2018-02-14T03:25:26.320Z,17.00
2018-02-14T03:27:53.768Z,17.57
2018-02-14T03:30:21.223Z,17.17
2018-02-14T03:32:48.662Z,16.93
2018-02-14T03:35:16.358Z,16.70
2018-02-14T03:37:43.792Z,16.80
2018-02-14T03:40:11.222Z,17.13
2018-02-14T03:42:38.679Z,16.80
2018-02-14T03:45:06.154Z,16.03
2018-02-14T03:47:33.576Z,17.03
2018-02-14T03:50:01.050Z,15.80
2018-02-14T03:52:28.532Z,17.43
2018-02-14T03:54:55.962Z,16.87
2018-02-14T03:57:23.474Z,16.67
2018-02-14T03:59:51.016Z,16.90
2018-02-14T04:02:18.490Z,17.47
2018-02-14T04:04:45.970Z,17.00
2018-02-14T04:07:13.438Z,16.60
2018-02-14T04:09:40.928Z,16.80
2018-02-14T04:12:08.366Z,17.27
2018-02-14T04:14:35.901Z,17.17
2018-02-14T04:17:03.396Z,17.73
2018-02-14T04:19:30.870Z,18.20
2018-02-14T04:21:58.390Z,16.57
2018-02-14T04:24:25.930Z,18.10
2018-02-14T04:26:54.176Z,17.67
2018-02-14T04:29:21.874Z,17.73
2018-02-14T04:31:49.334Z,17.10
2018-02-14T04:34:16.779Z,17.30
2018-02-14T04:36:44.360Z,17.40
2018-02-14T04:39:11.816Z,18.60
2018-02-14T04:41:39.306Z,17.93
2018-02-14T04:44:06.746Z,17.03
2018-02-14T04:46:34.462Z,16.97
2018-02-14T04:49:01.920Z,18.23
2018-02-14T04:51:29.391Z,17.40
2018-02-14T04:53:56.860Z,17.40
2018-02-14T04:56:24.437Z,17.87
2018-02-14T04:58:51.864Z,17.40
2018-02-14T05:01:19.350Z,18.43
2018-02-14T05:03:46.820Z,18.10
2018-02-14T05:06:14.306Z,18.03
2018-02-14T05:08:41.790Z,17.90
2018-02-14T05:11:09.452Z,17.63
2018-02-14T05:13:36.912Z,18.00
2018-02-14T05:16:04.437Z,18.43
2018-02-14T05:18:31.990Z,18.20
2018-02-14T05:20:59.496Z,17.60
2018-02-14T05:23:26.991Z,17.13
2018-02-14T05:25:54.600Z,19.33
2018-02-14T05:28:22.064Z,19.43
2018-02-14T05:30:52.608Z,18.20
2018-02-14T05:33:20.298Z,18.87
2018-02-14T05:35:47.764Z,18.63
2018-02-14T05:38:15.300Z,18.07
2018-02-14T05:40:43.887Z,18.37
2018-02-14T05:43:15.200Z,19.57
2018-02-14T05:45:44.998Z,18.73
2018-02-14T05:48:13.651Z,17.67
2018-02-14T05:50:41.270Z,18.07
2018-02-14T05:53:08.738Z,18.57
2018-02-14T05:55:36.256Z,17.37
2018-02-14T05:58:03.775Z,18.57
2018-02-14T06:00:31.228Z,19.73
2018-02-14T06:02:58.804Z,18.27
2018-02-14T06:05:26.301Z,18.90
2018-02-14T06:07:53.870Z,19.47
2018-02-14T06:10:21.364Z,18.33
2018-02-14T06:12:48.892Z,18.93
2018-02-14T06:15:16.394Z,20.00
2018-02-14T06:17:43.892Z,19.57
2018-02-14T06:20:11.353Z,19.33
2018-02-14T06:22:38.810Z,19.00
2018-02-14T06:25:06.287Z,18.30
2018-02-14T06:27:34.628Z,19.43
2018-02-14T06:30:02.140Z,19.50
2018-02-14T06:32:29.643Z,19.83
2018-02-14T06:34:57.204Z,18.97
2018-02-14T06:37:24.755Z,18.63
2018-02-14T06:39:52.341Z,18.77
2018-02-14T06:42:19.804Z,18.40
2018-02-14T06:44:47.267Z,19.63
2018-02-14T06:47:14.834Z,19.67
2018-02-14T06:49:42.285Z,18.23
2018-02-14T06:52:09.951Z,20.63
2018-02-14T06:54:37.467Z,19.30
2018-02-14T06:57:04.951Z,18.50
2018-02-14T06:59:32.507Z,18.43
2018-02-14T07:02:00.023Z,18.77
2018-02-14T07:04:27.520Z,19.10
2018-02-14T07:06:55.014Z,18.23
2018-02-14T07:09:22.597Z,18.57
2018-02-14T07:11:50.156Z,19.67
2018-02-14T07:14:17.657Z,18.70
2018-02-14T07:16:45.245Z,19.73
2018-02-14T07:19:12.932Z,18.53
2018-02-14T07:21:40.541Z,20.63
2018-02-14T07:24:08.099Z,19.00
2018-02-14T07:26:35.657Z,17.83
2018-02-14T07:29:04.051Z,17.43
2018-02-14T07:31:32.577Z,18.13
2018-02-14T07:34:00.179Z,18.23
2018-02-14T07:36:28.950Z,18.13
2018-02-14T07:38:56.408Z,18.07
2018-02-14T07:41:23.929Z,17.80
2018-02-14T07:43:51.373Z,17.47
2018-02-14T07:46:18.822Z,17.83
2018-02-14T07:48:46.282Z,18.77
2018-02-14T07:51:13.881Z,19.03
2018-02-14T07:53:41.391Z,19.33
2018-02-14T07:56:09.012Z,18.90
2018-02-14T07:58:36.553Z,19.83
2018-02-14T08:01:04.047Z,19.30
2018-02-14T08:03:31.626Z,20.43
2018-02-14T08:05:59.125Z,18.80
2018-02-14T08:08:26.633Z,18.53
2018-02-14T08:10:54.713Z,19.23
2018-02-14T08:13:22.177Z,18.67
2018-02-14T08:15:49.649Z,19.07
2018-02-14T08:18:17.135Z,19.97
2018-02-14T08:20:44.576Z,18.93
2018-02-14T08:23:12.215Z,19.17
2018-02-14T08:25:39.719Z,19.77
2018-02-14T08:28:07.244Z,20.07
2018-02-14T08:30:34.773Z,18.13
2018-02-14T08:33:02.290Z,18.83
2018-02-14T08:35:30.391Z,18.70
2018-02-14T08:37:57.952Z,18.60
2018-02-14T08:40:25.707Z,18.73
2018-02-14T08:42:53.404Z,19.37
2018-02-14T08:45:22.104Z,18.63
2018-02-14T08:47:49.857Z,19.60
2018-02-14T08:50:17.621Z,19.17
2018-02-14T08:52:45.153Z,19.33
2018-02-14T08:55:12.771Z,18.67
2018-02-14T08:57:40.275Z,18.67
2018-02-14T09:00:07.751Z,18.70
2018-02-14T09:02:35.259Z,18.40
2018-02-14T09:05:02.915Z,19.87
2018-02-14T09:07:31.147Z,20.40
2018-02-14T09:09:58.795Z,20.13
2018-02-14T09:12:26.569Z,20.80
2018-02-14T09:14:54.182Z,18.83
2018-02-14T09:17:21.849Z,20.67
2018-02-14T09:19:49.506Z,21.53
2018-02-14T09:22:17.010Z,20.73
2018-02-14T09:24:44.813Z,20.93
2018-02-14T09:27:12.432Z,23.10
2018-02-14T09:29:39.978Z,20.87
2018-02-14T09:32:07.595Z,21.17
2018-02-14T09:34:35.728Z,21.27
2018-02-14T09:37:03.283Z,22.20
2018-02-14T09:39:30.848Z,20.33
2018-02-14T09:41:58.374Z,21.73
2018-02-14T09:44:25.876Z,21.57
2018-02-14T09:46:53.452Z,21.77
2018-02-14T09:49:21.024Z,22.77
2018-02-14T09:51:48.553Z,21.50
2018-02-14T09:54:16.150Z,22.33
2018-02-14T09:56:43.633Z,22.47
2018-02-14T09:59:11.114Z,22.23
2018-02-14T10:01:38.609Z,21.27
2018-02-14T10:04:06.282Z,22.13
2018-02-14T10:06:33.806Z,21.40
2018-02-14T10:09:01.301Z,21.63
2018-02-14T10:11:28.837Z,20.17
2018-02-14T10:13:56.369Z,22.43
2018-02-14T10:16:23.877Z,21.40
2018-02-14T10:18:51.544Z,21.37
2018-02-14T10:21:19.042Z,20.37
2018-02-14T10:23:46.575Z,21.20
2018-02-14T10:26:14.071Z,19.87
2018-02-14T10:28:41.542Z,19.40
2018-02-14T10:31:09.063Z,19.48
2018-02-14T10:33:38.010Z,18.62
2018-02-14T10:36:05.540Z,17.98
2018-02-14T10:38:33.164Z,20.33
2018-02-14T10:41:00.682Z,18.33
2018-02-14T10:43:28.188Z,17.87
2018-02-14T10:45:55.666Z,17.55
2018-02-14T10:48:23.126Z,17.92
2018-02-14T10:50:50.769Z,18.25
2018-02-14T10:53:18.335Z,17.10
2018-02-14T10:55:45.796Z,17.45
2018-02-14T10:58:13.264Z,16.92
2018-02-14T11:00:46.316Z,17.42
2018-02-14T11:06:15.763Z,16.33
2018-02-14T11:08:43.368Z,17.17
2018-02-14T11:11:11.194Z,17.15
2018-02-14T11:13:38.744Z,15.95
2018-02-14T11:16:06.670Z,15.48
2018-02-14T11:18:34.185Z,14.13
2018-02-14T11:21:01.727Z,14.65
2018-02-14T11:23:29.281Z,13.00
2018-02-14T11:25:56.879Z,12.80
2018-02-14T11:28:24.818Z,13.98
2018-02-14T11:30:52.330Z,14.52
2018-02-14T11:33:19.852Z,15.00
2018-02-14T11:35:47.320Z,14.13
2018-02-14T11:38:14.882Z,15.43
2018-02-14T11:40:42.748Z,16.03
2018-02-14T11:43:10.410Z,13.57
2018-02-14T11:45:38.352Z,12.47
2018-02-14T11:48:06.131Z,12.23
2018-02-14T11:50:33.812Z,13.03
2018-02-14T11:53:01.421Z,14.67
2018-02-14T11:55:29.179Z,12.80
2018-02-14T11:57:56.902Z,12.57
2018-02-14T12:00:24.399Z,12.43
2018-02-14T12:02:52.429Z,11.90
2018-02-14T12:05:20.028Z,13.80
2018-02-14T12:07:47.541Z,12.97
2018-02-14T12:10:15.157Z,13.30
2018-02-14T12:12:42.670Z,12.53
2018-02-14T12:15:10.318Z,13.13
2018-02-14T12:17:37.858Z,12.63
2018-02-14T12:20:05.456Z,12.63
2018-02-14T12:22:32.984Z,13.33
2018-02-14T12:25:00.510Z,13.60
2018-02-14T12:27:28.100Z,13.67
2018-02-14T12:29:55.617Z,14.87
2018-02-14T12:32:23.144Z,14.37
2018-02-14T12:34:50.788Z,14.40
2018-02-14T12:37:18.359Z,13.77
2018-02-14T12:39:47.157Z,14.17
2018-02-14T12:42:15.799Z,13.47
2018-02-14T12:44:43.281Z,12.97
2018-02-14T12:47:10.814Z,13.85
2018-02-14T12:49:38.373Z,12.50
2018-02-14T12:52:05.913Z,12.95
2018-02-14T12:54:33.425Z,14.48
2018-02-14T12:57:00.927Z,12.85
2018-02-14T12:59:28.590Z,13.10
2018-02-14T13:01:56.083Z,13.00
2018-02-14T13:04:23.625Z,13.00
2018-02-14T13:06:51.158Z,12.88
2018-02-14T13:09:18.690Z,13.05
2018-02-14T13:11:46.182Z,15.05
2018-02-14T13:14:13.649Z,13.18
2018-02-14T13:16:41.168Z,13.88
2018-02-14T13:19:08.684Z,13.65
2018-02-14T13:21:36.456Z,13.93
2018-02-14T13:24:03.952Z,14.65
2018-02-14T13:26:31.464Z,13.23
2018-02-14T13:28:59.846Z,13.57
2018-02-14T13:31:27.482Z,13.52
2018-02-14T13:33:54.966Z,13.35
2018-02-14T13:36:23.354Z,12.43
2018-02-14T13:38:50.925Z,12.50
2018-02-14T13:41:18.516Z,12.30
2018-02-14T13:43:46.073Z,11.57
2018-02-14T13:46:13.656Z,11.38
2018-02-14T13:48:41.376Z,13.05
2018-02-14T13:51:09.009Z,13.50
2018-02-14T13:53:36.494Z,12.37
2018-02-14T13:56:04.004Z,12.02
2018-02-14T13:58:32.094Z,13.07
2018-02-14T14:00:59.579Z,13.77
2018-02-14T14:03:27.181Z,13.40
2018-02-14T14:05:54.787Z,12.95
2018-02-14T14:08:22.611Z,13.35
2018-02-14T14:10:50.194Z,13.32
2018-02-14T14:13:17.700Z,12.40
2018-02-14T14:15:45.303Z,12.48
2018-02-14T14:18:13.087Z,11.20
2018-02-14T14:20:40.720Z,10.40
2018-02-14T14:23:08.373Z,11.33
2018-02-14T14:25:35.890Z,11.77
2018-02-14T14:28:03.404Z,11.33
2018-02-14T14:30:31.205Z,10.93
2018-02-14T14:32:58.732Z,11.73
2018-02-14T14:35:26.266Z,11.73
2018-02-14T14:37:53.868Z,12.23
2018-02-14T14:40:21.687Z,11.87
2018-02-14T14:42:49.178Z,12.17
2018-02-14T14:45:16.838Z,12.83
2018-02-14T14:47:44.362Z,11.50
2018-02-14T14:50:11.950Z,11.97
2018-02-14T14:52:39.466Z,12.17
2018-02-14T14:55:07.013Z,11.33
2018-02-14T14:57:34.535Z,11.87
2018-02-14T15:00:02.068Z,13.87
2018-02-14T15:02:29.617Z,14.90
2018-02-14T15:04:57.108Z,15.37
2018-02-14T15:07:32.020Z,15.13
2018-02-14T15:09:59.930Z,13.97
2018-02-14T15:12:27.454Z,15.00
2018-02-14T15:14:55.012Z,13.47
2018-02-14T15:17:22.491Z,14.47
2018-02-14T15:19:49.979Z,12.27
2018-02-14T15:22:17.503Z,13.50
2018-02-14T15:24:45.202Z,14.40
2018-02-14T15:27:12.932Z,13.13
2018-02-14T15:29:40.489Z,13.27
2018-02-14T15:32:08.127Z,13.17
2018-02-14T15:34:35.726Z,12.90
2018-02-14T15:37:03.236Z,12.43
2018-02-14T15:39:30.835Z,12.87
2018-02-14T15:41:58.547Z,14.43
2018-02-14T15:44:26.151Z,12.13
2018-02-14T15:46:53.776Z,13.20
2018-02-14T15:49:21.295Z,12.67
2018-02-14T15:51:48.769Z,12.70
2018-02-14T15:54:16.451Z,13.50
2018-02-14T15:56:44.221Z,13.33
2018-02-14T15:59:11.860Z,12.37
2018-02-14T16:01:39.438Z,13.63
2018-02-14T16:04:06.988Z,12.60
2018-02-14T16:06:34.557Z,12.83
2018-02-14T16:09:03.671Z,12.47
2018-02-14T16:11:31.245Z,12.07
2018-02-14T16:13:58.931Z,13.00
2018-02-14T16:16:26.755Z,13.27
2018-02-14T16:18:54.275Z,13.60
2018-02-14T16:21:21.749Z,12.33
2018-02-14T16:23:49.242Z,12.93
2018-02-14T16:26:16.745Z,12.60
2018-02-14T16:28:44.185Z,13.27
2018-02-14T16:31:11.709Z,13.70
2018-02-14T16:33:39.142Z,13.20
2018-02-14T16:36:06.615Z,13.23
2018-02-14T16:38:34.115Z,11.87
2018-02-14T16:41:01.630Z,12.73
2018-02-14T16:43:29.092Z,11.03
2018-02-14T16:45:56.728Z,11.63
2018-02-14T16:48:24.219Z,11.90
2018-02-14T16:50:51.739Z,12.17
2018-02-14T16:53:20.004Z,10.83
2018-02-14T16:55:51.340Z,12.37
2018-02-14T16:58:24.781Z,11.90
2018-02-14T17:00:52.289Z,11.50
2018-02-14T17:03:19.787Z,11.27
2018-02-14T17:05:47.676Z,10.70
2018-02-14T17:08:15.259Z,11.20
2018-02-14T17:10:43.030Z,11.43
2018-02-14T17:13:10.641Z,12.43
2018-02-14T17:15:38.217Z,13.53
2018-02-14T17:18:06.123Z,12.27
2018-02-14T17:20:33.805Z,12.40
2018-02-14T17:23:01.552Z,12.53
2018-02-14T17:25:29.099Z,12.43
2018-02-14T17:27:56.585Z,12.90
2018-02-14T17:30:24.243Z,12.53
2018-02-14T17:32:51.737Z,11.73
2018-02-14T17:35:19.348Z,13.07
2018-02-14T17:37:47.751Z,13.53
2018-02-14T17:40:15.229Z,13.20
2018-02-14T17:42:42.689Z,13.17
2018-02-14T17:45:10.247Z,14.03
2018-02-14T17:47:37.773Z,13.47
2018-02-14T17:50:05.459Z,13.67
2018-02-14T17:52:33.103Z,13.43
2018-02-14T17:55:00.831Z,13.93
2018-02-14T17:57:28.427Z,13.27
2018-02-14T17:59:55.932Z,14.43
2018-02-14T18:02:23.533Z,13.87
2018-02-14T18:04:51.236Z,13.70
2018-02-14T18:07:18.883Z,13.93
2018-02-14T18:09:46.713Z,14.13
2018-02-14T18:12:14.227Z,15.83
2018-02-14T18:14:41.871Z,14.83
2018-02-14T18:17:09.439Z,15.20
2018-02-14T18:19:38.650Z,16.03
2018-02-14T18:22:06.187Z,15.77
2018-02-14T18:24:34.088Z,15.30
2018-02-14T18:27:01.638Z,16.43
2018-02-14T18:29:29.241Z,15.57
2018-02-14T18:31:56.778Z,15.97
2018-02-14T18:34:24.441Z,16.30
2018-02-14T18:36:52.061Z,15.90
2018-02-14T18:39:19.618Z,17.07
2018-02-14T18:41:47.173Z,15.40
2018-02-14T18:44:14.727Z,16.03
2018-02-14T18:46:42.218Z,15.20
2018-02-14T18:49:10.594Z,15.93
2018-02-14T18:51:38.254Z,15.33
2018-02-14T18:54:06.308Z,15.40
2018-02-14T18:56:33.785Z,17.03
2018-02-14T18:59:01.263Z,16.93
2018-02-14T19:01:28.814Z,15.80
2018-02-14T19:03:56.420Z,17.03
2018-02-14T19:06:24.031Z,17.63
2018-02-14T19:08:51.798Z,15.70
2018-02-14T19:11:19.360Z,15.60
2018-02-14T19:13:47.007Z,15.90
2018-02-14T19:16:14.842Z,16.90
2018-02-14T19:18:44.810Z,15.43
2018-02-14T19:21:13.552Z,17.27
2018-02-14T19:23:41.104Z,16.37
2018-02-14T19:26:08.667Z,16.77
2018-02-14T19:28:42.654Z,16.83
2018-02-14T19:31:10.200Z,17.87
2018-02-14T19:33:37.730Z,17.47
2018-02-14T19:36:05.294Z,18.13
2018-02-14T19:38:33.038Z,18.13
2018-02-14T19:41:00.592Z,17.10
2018-02-14T19:43:28.238Z,18.37
2018-02-14T19:45:55.800Z,18.03
2018-02-14T19:48:23.428Z,17.37
2018-02-14T19:50:51.010Z,18.40
2018-02-14T19:53:18.750Z,17.77
2018-02-14T19:55:46.236Z,18.13
2018-02-14T19:58:13.921Z,18.47
2018-02-14T20:00:41.398Z,18.50
2018-02-14T20:03:08.927Z,19.20
2018-02-14T20:05:36.472Z,18.90
2018-02-14T20:08:04.036Z,18.53
2018-02-14T20:10:31.780Z,18.93
2018-02-14T20:12:59.387Z,20.87
2018-02-14T20:15:27.228Z,19.07
2018-02-14T20:17:54.698Z,18.87
2018-02-14T20:20:22.346Z,19.40
2018-02-14T20:22:50.744Z,18.10
2018-02-14T20:25:18.314Z,19.63
2018-02-14T20:27:46.021Z,18.13
2018-02-14T20:30:13.740Z,18.47
2018-02-14T20:32:41.292Z,17.90
2018-02-14T20:35:08.852Z,17.70
2018-02-14T20:37:36.355Z,18.77
2018-02-14T20:40:03.892Z,17.07
2018-02-14T20:42:31.394Z,16.83
2018-02-14T20:44:58.963Z,15.83
2018-02-14T20:47:26.448Z,17.33
2018-02-14T20:49:53.982Z,16.00
2018-02-14T20:52:21.477Z,16.77
2018-02-14T20:54:50.074Z,16.47
2018-02-14T20:57:17.545Z,16.23
2018-02-14T20:59:45.104Z,18.33
2018-02-14T21:02:12.589Z,16.57
2018-02-14T21:04:40.172Z,17.03
2018-02-14T21:07:07.750Z,17.07
2018-02-14T21:09:36.855Z,18.40
2018-02-14T21:12:04.380Z,16.87
2018-02-14T21:14:31.922Z,16.20
2018-02-14T21:16:59.481Z,16.37
2018-02-14T21:19:27.196Z,16.77
2018-02-14T21:21:54.939Z,17.70
2018-02-14T21:24:22.398Z,17.30
2018-02-14T21:26:50.296Z,16.50
2018-02-14T21:29:18.136Z,17.93
2018-02-14T21:31:45.684Z,17.17
2018-02-14T21:34:13.143Z,18.30
2018-02-14T21:36:40.900Z,16.97
2018-02-14T21:39:08.402Z,17.30
2018-02-14T21:41:36.710Z,16.37
2018-02-14T21:44:04.222Z,17.70
2018-02-14T21:46:31.787Z,16.77
2018-02-14T21:48:59.304Z,17.23
2018-02-14T21:51:26.981Z,16.23
2018-02-14T21:53:54.512Z,17.80
2018-02-14T21:56:27.200Z,18.20
2018-02-14T21:58:54.776Z,16.57
2018-02-14T22:01:22.358Z,18.00
2018-02-14T22:03:49.968Z,17.70
2018-02-14T22:06:17.452Z,16.50
2018-02-14T22:08:44.943Z,18.23
2018-02-14T22:11:12.518Z,18.50
2018-02-14T22:13:40.121Z,18.87
2018-02-14T22:16:07.612Z,18.80
2018-02-14T22:18:35.169Z,19.50
2018-02-14T22:21:02.737Z,18.57
2018-02-14T22:23:30.292Z,19.07
2018-02-14T22:25:57.816Z,17.93
2018-02-14T22:28:25.489Z,20.00
2018-02-14T22:30:53.080Z,18.23
2018-02-14T22:33:20.586Z,18.30
2018-02-14T22:35:48.096Z,18.03
2018-02-14T22:38:16.723Z,19.20
2018-02-14T22:40:44.478Z,19.63
2018-02-14T22:43:12.107Z,19.73
2018-02-14T22:45:39.639Z,19.17
2018-02-14T22:48:07.419Z,18.93
2018-02-14T22:50:34.978Z,19.47
2018-02-14T22:53:02.500Z,19.30
2018-02-14T22:55:30.012Z,18.07
2018-02-14T22:57:57.519Z,19.27
2018-02-14T23:00:25.100Z,18.47
2018-02-14T23:02:52.642Z,19.37
2018-02-14T23:05:21.327Z,18.60
2018-02-14T23:07:49.705Z,19.13
2018-02-14T23:10:18.131Z,19.53
2018-02-14T23:12:45.719Z,18.07
2018-02-14T23:15:13.246Z,19.50
2018-02-14T23:17:40.793Z,19.17
2018-02-14T23:20:08.376Z,18.77
2018-02-14T23:22:36.079Z,18.90
2018-02-14T23:25:03.531Z,18.37
2018-02-14T23:27:31.055Z,18.60
2018-02-14T23:29:58.580Z,17.77
2018-02-14T23:32:26.131Z,18.17
2018-02-14T23:34:53.625Z,18.93
2018-02-14T23:37:21.121Z,18.20
2018-02-14T23:39:48.581Z,18.10
2018-02-14T23:42:16.031Z,19.00
2018-02-14T23:44:43.645Z,18.63
2018-02-14T23:47:11.075Z,18.00
2018-02-14T23:49:38.772Z,17.63
2018-02-14T23:52:06.307Z,17.60
2018-02-14T23:54:33.885Z,18.17
2018-02-14T23:57:01.344Z,18.20
2018-02-14T23:59:28.785Z,16.33
